createdAt,value
2022-09-03T00:01:13.461Z,0.38
2022-09-03T00:03:44.725Z,0.20
2022-09-03T00:06:15.793Z,0.20
2022-09-03T00:08:45.457Z,0.20
2022-09-03T00:11:17.758Z,0.30
2022-09-03T00:13:46.928Z,0.30
2022-09-03T00:16:17.476Z,0.30
2022-09-03T00:18:47.088Z,0.30
2022-09-03T00:21:16.854Z,0.20
2022-09-03T00:23:45.306Z,0.30
2022-09-03T00:26:19.503Z,0.20
2022-09-03T00:28:50.758Z,0.30
2022-09-03T00:31:20.642Z,0.20
2022-09-03T00:33:49.391Z,0.20
2022-09-03T00:36:18.354Z,0.20
2022-09-03T00:38:45.972Z,0.25
2022-09-03T00:41:20.047Z,0.25
2022-09-03T00:43:58.146Z,0.30
2022-09-03T00:46:27.617Z,0.30
2022-09-03T00:49:10.971Z,0.20
2022-09-03T00:51:44.754Z,0.30
2022-09-03T00:54:16.070Z,0.30
2022-09-03T00:56:49.839Z,0.20
2022-09-03T00:59:27.835Z,0.20
2022-09-03T01:02:02.196Z,0.30
2022-09-03T01:04:35.364Z,0.30
2022-09-03T01:07:09.592Z,0.30
2022-09-03T01:09:48.995Z,0.20
2022-09-03T01:12:20.111Z,0.20
2022-09-03T01:14:57.579Z,0.20
2022-09-03T01:17:31.852Z,0.20
2022-09-03T01:20:04.825Z,0.30
2022-09-03T01:22:45.548Z,0.20
2022-09-03T01:25:17.579Z,0.20
2022-09-03T01:27:47.501Z,0.30
2022-09-03T01:30:18.922Z,0.30
2022-09-03T01:32:50.372Z,0.28
2022-09-03T01:35:22.839Z,0.20
2022-09-03T01:38:00.853Z,0.30
2022-09-03T01:40:34.644Z,0.30
2022-09-03T01:43:09.261Z,0.20
2022-09-03T01:45:51.778Z,0.20
2022-09-03T01:48:31.183Z,0.30
2022-09-03T01:51:04.280Z,0.30
2022-09-03T01:53:40.321Z,0.28
2022-09-03T01:56:16.314Z,0.30
2022-09-03T01:58:46.842Z,0.40
2022-09-03T02:01:18.063Z,0.30
2022-09-03T02:03:46.853Z,0.20
2022-09-03T02:06:14.399Z,0.30
2022-09-03T02:08:42.141Z,0.28
2022-09-03T02:11:10.525Z,0.30
2022-09-03T02:13:40.321Z,0.30
2022-09-03T02:16:11.368Z,0.30
2022-09-03T02:18:42.370Z,0.30
2022-09-03T02:21:11.131Z,0.20
2022-09-03T02:23:40.370Z,0.40
2022-09-03T02:26:09.303Z,0.30
2022-09-03T02:28:36.899Z,0.40
2022-09-03T02:31:04.756Z,0.40
2022-09-03T02:33:33.379Z,0.25
2022-09-03T02:36:02.683Z,0.25
2022-09-03T02:38:30.215Z,0.30
2022-09-03T02:40:57.888Z,0.35
2022-09-03T02:43:28.538Z,0.32
2022-09-03T02:45:58.101Z,0.30
2022-09-03T02:48:25.959Z,0.30
2022-09-03T02:50:53.600Z,0.30
2022-09-03T02:53:22.565Z,0.20
2022-09-03T02:55:50.083Z,0.40
2022-09-03T02:58:17.601Z,0.30
2022-09-03T03:00:45.315Z,0.30
2022-09-03T03:03:12.925Z,0.30
2022-09-03T03:05:43.980Z,0.30
2022-09-03T03:08:12.215Z,0.30
2022-09-03T03:10:41.146Z,0.30
2022-09-03T03:13:08.666Z,0.30
2022-09-03T03:15:36.286Z,0.30
2022-09-03T03:18:03.795Z,0.30
2022-09-03T03:20:31.658Z,0.38
2022-09-03T03:23:02.345Z,0.30
2022-09-03T03:25:29.967Z,0.20
2022-09-03T03:27:58.788Z,0.30
2022-09-03T03:30:26.457Z,0.40
2022-09-03T03:32:54.408Z,0.30
2022-09-03T03:35:21.925Z,0.30
2022-09-03T03:37:49.791Z,0.40
2022-09-03T03:40:17.398Z,0.40
2022-09-03T03:42:44.877Z,0.30
2022-09-03T03:45:13.833Z,0.30
2022-09-03T03:47:41.334Z,0.30
2022-09-03T03:50:09.354Z,0.30
2022-09-03T03:52:38.846Z,0.30
2022-09-03T03:55:06.905Z,0.30
2022-09-03T03:57:34.467Z,0.32
2022-09-03T04:00:02.211Z,0.30
2022-09-03T04:02:43.235Z,0.32
2022-09-03T04:05:10.995Z,0.30
2022-09-03T04:07:39.140Z,0.28
2022-09-03T04:10:07.343Z,0.35
2022-09-03T04:12:34.852Z,0.28
2022-09-03T04:15:02.407Z,0.30
2022-09-03T04:17:29.932Z,0.30
2022-09-03T04:19:58.830Z,0.30
2022-09-03T04:22:26.324Z,0.40
2022-09-03T04:24:53.847Z,0.30
2022-09-03T04:27:21.367Z,0.30
2022-09-03T04:29:48.924Z,0.30
2022-09-03T04:32:33.896Z,0.30
2022-09-03T04:35:02.745Z,0.30
2022-09-03T04:37:30.237Z,0.30
2022-09-03T04:39:57.822Z,0.30
2022-09-03T04:42:25.384Z,0.30
2022-09-03T04:44:52.897Z,0.35
2022-09-03T04:47:20.417Z,0.30
2022-09-03T04:49:48.037Z,0.30
2022-09-03T04:52:16.917Z,0.38
2022-09-03T04:54:44.718Z,0.30
2022-09-03T04:57:12.229Z,0.30
2022-09-03T04:59:41.184Z,0.40
2022-09-03T05:02:09.974Z,0.30
2022-09-03T05:04:37.542Z,0.20
2022-09-03T05:07:05.183Z,0.40
2022-09-03T05:09:34.154Z,0.40
2022-09-03T05:12:01.803Z,0.30
2022-09-03T05:14:29.439Z,0.38
2022-09-03T05:16:57.044Z,0.20
2022-09-03T05:19:25.051Z,0.30
2022-09-03T05:21:52.555Z,0.30
2022-09-03T05:24:19.990Z,0.30
2022-09-03T05:26:48.861Z,0.30
2022-09-03T05:29:16.334Z,0.30
2022-09-03T05:31:44.011Z,0.30
2022-09-03T05:34:16.622Z,0.30
2022-09-03T05:36:49.064Z,0.30
2022-09-03T05:39:16.693Z,0.20
2022-09-03T05:41:44.256Z,0.20
2022-09-03T05:44:13.138Z,0.20
2022-09-03T05:46:40.629Z,0.20
2022-09-03T05:49:08.576Z,0.20
2022-09-03T05:51:36.803Z,0.10
2022-09-03T05:54:05.255Z,0.10
2022-09-03T05:56:35.632Z,0.10
2022-09-03T05:59:05.650Z,0.10
2022-09-03T06:01:35.144Z,0.10
2022-09-03T06:04:03.556Z,0.10
2022-09-03T06:06:32.497Z,0.10
2022-09-03T06:09:00.757Z,0.10
2022-09-03T06:11:29.433Z,0.10
2022-09-03T06:13:57.573Z,0.10
2022-09-03T06:16:29.017Z,0.10
2022-09-03T06:19:01.183Z,0.10
2022-09-03T06:21:28.839Z,0.10
2022-09-03T06:23:58.506Z,0.10
2022-09-03T06:26:28.076Z,0.10
2022-09-03T06:28:56.252Z,0.10
2022-09-03T06:31:24.224Z,0.10
2022-09-03T06:33:52.996Z,0.10
2022-09-03T06:36:23.622Z,0.00
2022-09-03T06:38:52.947Z,0.10
2022-09-03T06:41:24.973Z,0.00
2022-09-03T06:43:53.006Z,0.10
2022-09-03T06:46:21.514Z,0.10
2022-09-03T06:48:52.129Z,0.03
2022-09-03T06:51:20.359Z,0.10
2022-09-03T06:53:50.539Z,0.10
2022-09-03T06:56:19.190Z,0.10
2022-09-03T06:58:47.683Z,0.08
2022-09-03T07:01:16.241Z,0.05
2022-09-03T07:03:45.016Z,0.10
2022-09-03T07:06:13.852Z,0.10
2022-09-03T07:08:41.871Z,0.20
2022-09-03T07:11:11.768Z,0.10
2022-09-03T07:13:40.507Z,0.20
2022-09-03T07:16:09.208Z,0.10
2022-09-03T07:18:36.844Z,0.10
2022-09-03T07:21:05.596Z,0.10
2022-09-03T07:23:57.529Z,0.20
2022-09-03T07:26:27.616Z,0.10
2022-09-03T07:28:55.705Z,0.20
2022-09-03T07:31:25.834Z,0.10
2022-09-03T07:33:56.021Z,0.20
2022-09-03T07:36:24.818Z,0.20
2022-09-03T07:38:56.441Z,0.10
2022-09-03T07:41:28.471Z,0.20
2022-09-03T07:43:58.007Z,0.13
2022-09-03T07:46:27.064Z,0.10
2022-09-03T07:48:56.721Z,0.20
2022-09-03T07:51:26.552Z,0.17
2022-09-03T07:53:54.983Z,0.10
2022-09-03T07:56:22.972Z,0.10
2022-09-03T07:58:50.740Z,0.10
2022-09-03T08:01:20.564Z,0.17
2022-09-03T08:03:49.110Z,0.20
2022-09-03T08:06:17.290Z,0.10
2022-09-03T08:08:45.623Z,0.10
2022-09-03T08:11:13.593Z,0.10
2022-09-03T08:13:42.773Z,0.20
2022-09-03T08:16:10.412Z,0.10
2022-09-03T08:18:39.658Z,0.20
2022-09-03T08:21:08.432Z,0.10
2022-09-03T08:23:37.852Z,0.10
2022-09-03T08:26:05.561Z,0.10
2022-09-03T08:28:34.294Z,0.10
2022-09-03T08:31:06.048Z,0.10
2022-09-03T08:33:39.371Z,0.10
2022-09-03T08:36:09.606Z,0.10
2022-09-03T08:38:38.175Z,0.10
2022-09-03T08:41:08.498Z,0.10
2022-09-03T08:43:37.966Z,0.10
2022-09-03T08:46:05.572Z,0.10
2022-09-03T08:48:34.078Z,0.00
2022-09-03T08:51:07.768Z,0.10
2022-09-03T08:53:46.286Z,0.10
2022-09-03T08:56:16.003Z,0.10
2022-09-03T08:58:43.970Z,0.03
2022-09-03T09:01:16.929Z,0.00
2022-09-03T09:03:50.605Z,0.03
2022-09-03T09:06:22.219Z,0.10
2022-09-03T09:08:56.955Z,0.10
2022-09-03T09:11:33.336Z,0.10
2022-09-03T09:14:04.153Z,0.10
2022-09-03T09:16:35.008Z,0.00
2022-09-03T09:19:09.836Z,0.00
2022-09-03T09:21:39.420Z,0.00
2022-09-03T09:24:12.010Z,0.10
2022-09-03T09:26:41.433Z,0.10
2022-09-03T09:29:10.802Z,0.10
2022-09-03T09:31:38.717Z,0.10
2022-09-03T09:34:07.152Z,0.10
2022-09-03T09:36:38.745Z,0.10
2022-09-03T09:39:10.858Z,0.10
2022-09-03T09:41:38.572Z,0.00
2022-09-03T09:44:06.286Z,0.10
2022-09-03T09:46:36.149Z,0.10
2022-09-03T09:49:09.467Z,0.00
2022-09-03T09:51:37.262Z,0.10
2022-09-03T09:54:19.957Z,0.00
2022-09-03T09:56:59.202Z,0.10
2022-09-03T09:59:26.771Z,0.10
2022-09-03T10:02:04.568Z,0.10
2022-09-03T10:04:33.569Z,0.10
2022-09-03T10:07:04.618Z,0.00
2022-09-03T10:09:32.646Z,0.10
2022-09-03T10:12:09.852Z,0.10
2022-09-03T10:14:39.667Z,0.10
2022-09-03T10:17:11.643Z,0.10
2022-09-03T10:20:22.159Z,0.10
2022-09-03T10:22:56.801Z,0.10
2022-09-03T10:25:26.355Z,0.10
2022-09-03T10:27:55.420Z,0.10
2022-09-03T10:30:23.935Z,0.10
2022-09-03T10:32:59.832Z,0.03
2022-09-03T10:35:30.043Z,0.00
2022-09-03T10:38:04.035Z,0.10
2022-09-03T10:40:35.947Z,0.00
2022-09-03T10:43:16.835Z,0.00
2022-09-03T10:45:50.332Z,0.10
2022-09-03T10:48:36.236Z,0.00
2022-09-03T10:51:06.579Z,0.00
2022-09-03T10:53:44.130Z,0.00
2022-09-03T10:56:14.595Z,0.10
2022-09-03T10:58:51.326Z,0.03
2022-09-03T11:01:22.215Z,0.08
2022-09-03T11:03:51.085Z,0.00
2022-09-03T11:06:21.918Z,0.10
2022-09-03T11:08:52.625Z,0.10
2022-09-03T11:11:21.829Z,0.00
2022-09-03T11:13:54.020Z,0.05
2022-09-03T11:16:26.972Z,0.00
2022-09-03T11:18:56.046Z,0.00
2022-09-03T11:21:25.783Z,0.00
2022-09-03T11:23:55.422Z,0.10
2022-09-03T11:26:26.195Z,0.00
2022-09-03T11:28:57.223Z,0.00
2022-09-03T11:31:27.687Z,0.10
2022-09-03T11:33:58.876Z,0.00
2022-09-03T11:36:30.165Z,0.10
2022-09-03T11:38:57.753Z,0.10
2022-09-03T11:41:27.029Z,0.10
2022-09-03T11:43:56.001Z,0.10
2022-09-03T11:46:30.740Z,0.00
2022-09-03T11:49:09.819Z,0.10
2022-09-03T11:51:38.314Z,0.10
2022-09-03T11:54:06.763Z,0.10
2022-09-03T11:56:36.181Z,0.10
2022-09-03T11:59:07.566Z,0.00
2022-09-03T12:01:37.527Z,0.00
2022-09-03T12:04:07.133Z,0.10
2022-09-03T12:06:56.491Z,0.00
2022-09-03T12:09:30.203Z,0.10
2022-09-03T12:12:06.002Z,0.10
2022-09-03T12:14:38.622Z,0.05
2022-09-03T12:17:13.041Z,0.10
2022-09-03T12:19:42.241Z,0.10
2022-09-03T12:22:14.988Z,0.10
2022-09-03T12:24:44.465Z,0.03
2022-09-03T12:27:14.398Z,0.10
2022-09-03T12:29:51.428Z,0.10
2022-09-03T12:32:19.423Z,0.10
2022-09-03T12:34:50.024Z,0.10
2022-09-03T12:40:18.255Z,0.10
2022-09-03T12:42:46.033Z,0.00
2022-09-03T12:45:16.441Z,0.10
2022-09-03T12:47:45.041Z,0.10
2022-09-03T12:50:13.766Z,0.10
2022-09-03T12:52:43.087Z,0.10
2022-09-03T12:55:18.147Z,0.10
2022-09-03T12:57:47.795Z,0.00
2022-09-03T13:00:18.302Z,0.10
2022-09-03T13:02:47.900Z,0.10
2022-09-03T13:05:18.221Z,0.10
2022-09-03T13:07:47.410Z,0.10
2022-09-03T13:10:21.830Z,0.10
2022-09-03T13:12:53.205Z,0.20
2022-09-03T13:15:23.898Z,0.10
2022-09-03T13:17:58.238Z,0.10
2022-09-03T13:20:30.077Z,0.10
2022-09-03T13:23:03.212Z,0.05
2022-09-03T13:25:34.914Z,0.17
2022-09-03T13:28:08.716Z,0.10
2022-09-03T13:30:44.138Z,0.10
2022-09-03T13:33:19.638Z,0.10
2022-09-03T13:35:49.425Z,0.10
2022-09-03T13:38:22.808Z,0.10
2022-09-03T13:40:52.829Z,0.10
2022-09-03T13:43:24.063Z,0.10
2022-09-03T13:45:55.731Z,0.13
2022-09-03T13:48:44.662Z,0.10
2022-09-03T13:51:15.580Z,0.10
2022-09-03T13:53:48.515Z,0.03
2022-09-03T13:56:25.666Z,0.10
2022-09-03T13:58:57.143Z,0.10
2022-09-03T14:01:28.199Z,0.10
2022-09-03T14:03:58.683Z,0.10
2022-09-03T14:06:32.594Z,0.10
2022-09-03T14:09:07.817Z,0.10
2022-09-03T14:11:42.474Z,0.20
2022-09-03T14:14:14.972Z,0.10
2022-09-03T14:16:48.062Z,0.10
2022-09-03T14:19:20.892Z,0.10
2022-09-03T14:21:51.735Z,0.13
2022-09-03T14:24:22.644Z,0.20
2022-09-03T14:26:51.647Z,0.20
2022-09-03T14:29:21.899Z,0.10
2022-09-03T14:32:00.179Z,0.10
2022-09-03T14:34:33.472Z,0.10
2022-09-03T14:37:06.083Z,0.10
2022-09-03T14:39:34.835Z,0.13
2022-09-03T14:42:21.221Z,0.10
2022-09-03T14:45:03.527Z,0.15
2022-09-03T14:47:37.076Z,0.10
2022-09-03T14:50:09.888Z,0.10
2022-09-03T14:53:03.197Z,0.20
2022-09-03T14:55:36.257Z,0.20
2022-09-03T14:58:17.844Z,0.20
2022-09-03T15:00:50.653Z,0.22
2022-09-03T15:03:30.130Z,0.20
2022-09-03T15:06:11.906Z,0.10
2022-09-03T15:08:54.337Z,0.20
2022-09-03T15:11:23.418Z,0.20
2022-09-03T15:13:53.726Z,0.20
2022-09-03T15:16:36.675Z,0.20
2022-09-03T15:19:14.488Z,0.20
2022-09-03T15:21:46.963Z,0.20
2022-09-03T15:24:18.518Z,0.30
2022-09-03T15:26:57.306Z,0.20
2022-09-03T15:29:30.884Z,0.20
2022-09-03T15:32:04.871Z,0.30
2022-09-03T15:34:48.998Z,0.20
2022-09-03T15:37:19.706Z,0.20
2022-09-03T15:39:47.638Z,0.10
2022-09-03T15:42:18.907Z,0.20
2022-09-03T15:44:49.559Z,0.20
2022-09-03T15:47:35.274Z,0.20
2022-09-03T15:50:30.083Z,0.20
2022-09-03T15:53:03.660Z,0.20
2022-09-03T15:55:33.057Z,0.20
2022-09-03T15:58:09.711Z,0.20
2022-09-03T16:00:50.123Z,0.20
2022-09-03T16:03:23.898Z,0.20
2022-09-03T16:05:55.996Z,0.28
2022-09-03T16:08:25.403Z,0.20
2022-09-03T16:11:01.885Z,0.25
2022-09-03T16:13:36.237Z,0.20
2022-09-03T16:16:05.202Z,0.20
2022-09-03T16:18:34.658Z,0.28
2022-09-03T16:21:04.728Z,0.20
2022-09-03T16:23:33.609Z,0.20
2022-09-03T16:26:05.855Z,0.20
2022-09-03T16:28:37.185Z,0.20
2022-09-03T16:31:13.005Z,0.20
2022-09-03T16:33:47.750Z,0.20
2022-09-03T16:36:26.893Z,0.20
2022-09-03T16:39:00.643Z,0.20
2022-09-03T16:41:31.487Z,0.20
2022-09-03T16:44:05.945Z,0.20
2022-09-03T16:46:37.219Z,0.20
2022-09-03T16:49:13.718Z,0.20
2022-09-03T16:51:45.602Z,0.30
2022-09-03T16:54:27.078Z,0.20
2022-09-03T16:56:59.997Z,0.20
2022-09-03T16:59:34.604Z,0.20
2022-09-03T17:02:30.071Z,0.20
2022-09-03T17:05:04.143Z,0.20
2022-09-03T17:07:38.771Z,0.20
2022-09-03T17:10:10.872Z,0.20
2022-09-03T17:12:41.392Z,0.20
2022-09-03T17:15:18.041Z,0.20
2022-09-03T17:18:10.166Z,0.20
2022-09-03T17:20:49.361Z,0.20
2022-09-03T17:23:30.581Z,0.20
2022-09-03T17:26:05.660Z,0.20
2022-09-03T17:28:43.004Z,0.20
2022-09-03T17:31:16.304Z,0.20
2022-09-03T17:34:04.817Z,0.20
2022-09-03T17:36:35.880Z,0.30
2022-09-03T17:39:22.449Z,0.20
2022-09-03T17:41:53.251Z,0.20
2022-09-03T17:44:28.452Z,0.30
2022-09-03T17:47:01.534Z,0.20
2022-09-03T17:49:31.185Z,0.22
2022-09-03T17:52:03.146Z,0.20
2022-09-03T17:54:37.489Z,0.20
2022-09-03T17:57:13.193Z,0.30
2022-09-03T17:59:45.544Z,0.20
2022-09-03T18:02:22.695Z,0.30
2022-09-03T18:04:54.844Z,0.20
2022-09-03T18:07:25.501Z,0.20
2022-09-03T18:09:58.759Z,0.20
2022-09-03T18:12:30.879Z,0.20
2022-09-03T18:15:05.499Z,0.30
2022-09-03T18:17:35.384Z,0.20
2022-09-03T18:20:23.509Z,0.20
2022-09-03T18:23:11.565Z,0.30
2022-09-03T18:25:59.136Z,0.20
2022-09-03T18:28:47.908Z,0.30
2022-09-03T18:31:40.893Z,0.20
2022-09-03T18:34:53.118Z,0.30
2022-09-03T18:37:39.306Z,0.30
2022-09-03T18:40:26.618Z,0.30
2022-09-03T18:43:20.596Z,0.20
2022-09-03T18:49:17.338Z,0.20
2022-09-03T18:52:05.600Z,0.30
2022-09-03T18:55:07.791Z,0.30
2022-09-03T18:57:59.168Z,0.30
2022-09-03T19:00:48.661Z,0.20
2022-09-03T19:03:43.613Z,0.35
2022-09-03T19:06:34.888Z,0.30
2022-09-03T19:09:24.165Z,0.30
2022-09-03T19:12:14.489Z,0.30
2022-09-03T19:15:03.937Z,0.20
2022-09-03T19:17:54.969Z,0.20
2022-09-03T19:20:44.456Z,0.30
2022-09-03T19:23:33.115Z,0.30
2022-09-03T19:26:22.685Z,0.32
2022-09-03T19:29:11.727Z,0.30
2022-09-03T19:32:01.815Z,0.30
2022-09-03T19:35:03.441Z,0.30
2022-09-03T19:37:52.005Z,0.30
2022-09-03T19:40:50.381Z,0.30
2022-09-03T19:43:38.746Z,0.30
2022-09-03T19:46:31.102Z,0.30
2022-09-03T19:49:21.823Z,0.30
2022-09-03T19:52:14.142Z,0.30
2022-09-03T19:54:59.466Z,0.30
2022-09-03T19:57:45.724Z,0.30
2022-09-03T20:00:33.048Z,0.30
2022-09-03T20:03:20.161Z,0.30
2022-09-03T20:06:10.230Z,0.30
2022-09-03T20:08:57.593Z,0.40
2022-09-03T20:11:27.788Z,0.30
2022-09-03T20:14:10.271Z,0.30
2022-09-03T20:16:43.668Z,0.20
2022-09-03T20:19:17.453Z,0.30
2022-09-03T20:21:50.076Z,0.20
2022-09-03T20:24:28.358Z,0.30
2022-09-03T20:27:02.254Z,0.30
2022-09-03T20:29:41.134Z,0.30
2022-09-03T20:32:12.069Z,0.30
2022-09-03T20:34:47.031Z,0.20
2022-09-03T20:37:25.266Z,0.30
2022-09-03T20:40:00.388Z,0.20
2022-09-03T20:42:39.028Z,0.30
2022-09-03T20:45:12.464Z,0.30
2022-09-03T20:47:48.683Z,0.22
2022-09-03T20:50:22.652Z,0.30
2022-09-03T20:52:55.088Z,0.20
2022-09-03T20:55:28.091Z,0.30
2022-09-03T20:57:59.124Z,0.40
2022-09-03T21:00:27.036Z,0.20
2022-09-03T21:03:11.669Z,0.30
2022-09-03T21:05:42.154Z,0.38
2022-09-03T21:08:17.562Z,0.20
2022-09-03T21:10:50.725Z,0.20
2022-09-03T21:13:24.461Z,0.30
2022-09-03T21:15:57.351Z,0.30
2022-09-03T21:18:27.257Z,0.30
2022-09-03T21:21:01.271Z,0.20
2022-09-03T21:23:30.663Z,0.22
2022-09-03T21:26:04.186Z,0.30
2022-09-03T21:28:37.338Z,0.30
2022-09-03T21:31:08.639Z,0.28
2022-09-03T21:33:38.983Z,0.30
2022-09-03T21:36:09.172Z,0.30
2022-09-03T21:38:38.033Z,0.30
2022-09-03T21:41:13.099Z,0.30
2022-09-03T21:43:45.579Z,0.30
2022-09-03T21:46:15.961Z,0.30
2022-09-03T21:48:48.539Z,0.30
2022-09-03T21:51:17.398Z,0.40
2022-09-03T21:53:47.392Z,0.32
2022-09-03T21:56:30.204Z,0.30
2022-09-03T21:59:08.979Z,0.30
2022-09-03T22:01:42.049Z,0.30
2022-09-03T22:04:09.643Z,0.30
2022-09-03T22:06:39.969Z,0.20
2022-09-03T22:09:11.400Z,0.30
2022-09-03T22:11:44.312Z,0.40
2022-09-03T22:14:14.294Z,0.30
2022-09-03T22:16:46.063Z,0.28
2022-09-03T22:19:14.444Z,0.30
2022-09-03T22:21:47.052Z,0.40
2022-09-03T22:24:22.213Z,0.40
2022-09-03T22:26:56.555Z,0.30
2022-09-03T22:29:29.757Z,0.38
2022-09-03T22:32:00.164Z,0.30
2022-09-03T22:34:38.089Z,0.30
2022-09-03T22:37:07.027Z,0.30
2022-09-03T22:39:36.617Z,0.40
2022-09-03T22:42:14.973Z,0.30
2022-09-03T22:45:00.797Z,0.40
2022-09-03T22:47:33.691Z,0.30
2022-09-03T22:50:08.827Z,0.30
2022-09-03T22:52:40.418Z,0.40
2022-09-03T22:55:13.149Z,0.30
2022-09-03T22:57:47.162Z,0.22
2022-09-03T23:00:15.816Z,0.40
2022-09-03T23:02:43.531Z,0.40
2022-09-03T23:05:16.135Z,0.40
2022-09-03T23:07:49.030Z,0.30
2022-09-03T23:10:23.029Z,0.40
2022-09-03T23:13:04.038Z,0.40
2022-09-03T23:15:32.540Z,0.30
2022-09-03T23:18:05.470Z,0.30
2022-09-03T23:20:35.146Z,0.30
2022-09-03T23:23:10.057Z,0.30
2022-09-03T23:25:41.994Z,0.20
2022-09-03T23:28:14.793Z,0.30
2022-09-03T23:30:42.365Z,0.30
2022-09-03T23:33:09.849Z,0.40
2022-09-03T23:35:43.985Z,0.20
2022-09-03T23:38:16.801Z,0.40
2022-09-03T23:40:47.383Z,0.40
2022-09-03T23:43:31.001Z,0.30
2022-09-03T23:46:04.903Z,0.40
2022-09-03T23:48:38.429Z,0.30
2022-09-03T23:51:09.565Z,0.22
2022-09-03T23:53:39.726Z,0.30
2022-09-03T23:56:32.523Z,0.35
2022-09-03T23:59:04.630Z,0.30
